sensor_id;sensor_type;location;lat;lon;timestamp;P1;durP1;ratioP1;P2;durP2;ratioP2
19187;SDS011;9726;52.198;8.792;2022-11-25T00:03:42;31.57;;;7.97;;
19187;SDS011;9726;52.198;8.792;2022-11-25T00:06:17;28.23;;;6.73;;
19187;SDS011;9726;52.198;8.792;2022-11-25T00:08:46;27.73;;;7.33;;
19187;SDS011;9726;52.198;8.792;2022-11-25T00:11:15;20.43;;;6.57;;
19187;SDS011;9726;52.198;8.792;2022-11-25T00:13:44;23.43;;;7.30;;
19187;SDS011;9726;52.198;8.792;2022-11-25T00:16:13;22.87;;;7.57;;
19187;SDS011;9726;52.198;8.792;2022-11-25T00:18:45;32.20;;;8.93;;
19187;SDS011;9726;52.198;8.792;2022-11-25T00:21:15;27.50;;;7.13;;
19187;SDS011;9726;52.198;8.792;2022-11-25T00:23:48;26.93;;;8.00;;
19187;SDS011;9726;52.198;8.792;2022-11-25T00:26:17;25.20;;;8.93;;
19187;SDS011;9726;52.198;8.792;2022-11-25T00:28:45;24.83;;;7.33;;
19187;SDS011;9726;52.198;8.792;2022-11-25T00:31:17;25.20;;;6.90;;
19187;SDS011;9726;52.198;8.792;2022-11-25T00:33:46;20.17;;;8.20;;
19187;SDS011;9726;52.198;8.792;2022-11-25T00:38:40;22.23;;;7.43;;
19187;SDS011;9726;52.198;8.792;2022-11-25T00:41:08;28.73;;;8.23;;
19187;SDS011;9726;52.198;8.792;2022-11-25T00:43:54;22.93;;;7.47;;
19187;SDS011;9726;52.198;8.792;2022-11-25T00:46:40;29.20;;;9.00;;
19187;SDS011;9726;52.198;8.792;2022-11-25T00:49:08;17.67;;;7.00;;
19187;SDS011;9726;52.198;8.792;2022-11-25T00:51:35;33.67;;;7.70;;
19187;SDS011;9726;52.198;8.792;2022-11-25T00:54:02;24.13;;;7.23;;
19187;SDS011;9726;52.198;8.792;2022-11-25T00:56:30;22.50;;;6.83;;
19187;SDS011;9726;52.198;8.792;2022-11-25T00:58:57;29.77;;;6.90;;
19187;SDS011;9726;52.198;8.792;2022-11-25T01:01:24;31.67;;;8.50;;
19187;SDS011;9726;52.198;8.792;2022-11-25T01:03:52;25.63;;;7.83;;
19187;SDS011;9726;52.198;8.792;2022-11-25T01:06:19;23.50;;;6.43;;
19187;SDS011;9726;52.198;8.792;2022-11-25T01:08:47;29.10;;;7.10;;
19187;SDS011;9726;52.198;8.792;2022-11-25T01:11:17;22.37;;;6.40;;
19187;SDS011;9726;52.198;8.792;2022-11-25T01:13:45;22.50;;;6.17;;
19187;SDS011;9726;52.198;8.792;2022-11-25T01:16:14;23.33;;;6.40;;
19187;SDS011;9726;52.198;8.792;2022-11-25T01:18:45;23.00;;;6.27;;
19187;SDS011;9726;52.198;8.792;2022-11-25T01:21:16;27.07;;;7.77;;
19187;SDS011;9726;52.198;8.792;2022-11-25T01:23:45;27.70;;;6.90;;
19187;SDS011;9726;52.198;8.792;2022-11-25T01:26:16;21.73;;;6.70;;
19187;SDS011;9726;52.198;8.792;2022-11-25T01:28:44;30.10;;;6.73;;
19187;SDS011;9726;52.198;8.792;2022-11-25T01:31:15;27.17;;;7.80;;
19187;SDS011;9726;52.198;8.792;2022-11-25T01:33:44;27.60;;;7.30;;
19187;SDS011;9726;52.198;8.792;2022-11-25T01:36:15;25.30;;;7.13;;
19187;SDS011;9726;52.198;8.792;2022-11-25T01:38:44;32.70;;;6.87;;
19187;SDS011;9726;52.198;8.792;2022-11-25T01:41:14;24.03;;;6.30;;
19187;SDS011;9726;52.198;8.792;2022-11-25T01:43:42;36.10;;;7.33;;
19187;SDS011;9726;52.198;8.792;2022-11-25T01:46:17;21.97;;;6.63;;
19187;SDS011;9726;52.198;8.792;2022-11-25T01:48:52;32.37;;;5.67;;
19187;SDS011;9726;52.198;8.792;2022-11-25T01:51:23;19.00;;;6.27;;
19187;SDS011;9726;52.198;8.792;2022-11-25T01:53:52;28.20;;;5.90;;
19187;SDS011;9726;52.198;8.792;2022-11-25T01:56:22;31.00;;;5.43;;
19187;SDS011;9726;52.198;8.792;2022-11-25T01:58:51;24.00;;;5.80;;
19187;SDS011;9726;52.198;8.792;2022-11-25T02:01:19;20.20;;;5.80;;
19187;SDS011;9726;52.198;8.792;2022-11-25T02:03:48;27.97;;;6.30;;
19187;SDS011;9726;52.198;8.792;2022-11-25T02:06:20;32.67;;;5.87;;
19187;SDS011;9726;52.198;8.792;2022-11-25T02:08:50;27.00;;;6.43;;
19187;SDS011;9726;52.198;8.792;2022-11-25T02:11:21;13.80;;;4.97;;
19187;SDS011;9726;52.198;8.792;2022-11-25T02:13:51;26.40;;;5.80;;
19187;SDS011;9726;52.198;8.792;2022-11-25T02:16:19;19.03;;;5.27;;
19187;SDS011;9726;52.198;8.792;2022-11-25T02:18:48;25.70;;;5.50;;
19187;SDS011;9726;52.198;8.792;2022-11-25T02:21:17;44.57;;;7.03;;
19187;SDS011;9726;52.198;8.792;2022-11-25T02:26:19;32.57;;;6.73;;
19187;SDS011;9726;52.198;8.792;2022-11-25T02:28:48;20.40;;;4.83;;
19187;SDS011;9726;52.198;8.792;2022-11-25T02:31:19;22.13;;;5.40;;
19187;SDS011;9726;52.198;8.792;2022-11-25T02:33:46;21.20;;;5.53;;
19187;SDS011;9726;52.198;8.792;2022-11-25T02:36:15;24.00;;;5.93;;
19187;SDS011;9726;52.198;8.792;2022-11-25T02:43:57;17.10;;;5.30;;
19187;SDS011;9726;52.198;8.792;2022-11-25T02:46:25;22.67;;;5.07;;
19187;SDS011;9726;52.198;8.792;2022-11-25T02:48:54;32.77;;;6.03;;
19187;SDS011;9726;52.198;8.792;2022-11-25T02:51:40;28.53;;;7.00;;
19187;SDS011;9726;52.198;8.792;2022-11-25T02:54:11;25.43;;;6.60;;
19187;SDS011;9726;52.198;8.792;2022-11-25T02:56:39;25.27;;;6.13;;
19187;SDS011;9726;52.198;8.792;2022-11-25T02:59:07;22.40;;;6.93;;
19187;SDS011;9726;52.198;8.792;2022-11-25T03:01:35;23.23;;;6.17;;
19187;SDS011;9726;52.198;8.792;2022-11-25T03:04:05;24.07;;;6.47;;
19187;SDS011;9726;52.198;8.792;2022-11-25T03:07:44;17.93;;;5.93;;
19187;SDS011;9726;52.198;8.792;2022-11-25T03:10:14;24.03;;;6.03;;
19187;SDS011;9726;52.198;8.792;2022-11-25T03:12:42;32.23;;;7.10;;
19187;SDS011;9726;52.198;8.792;2022-11-25T03:15:10;20.17;;;5.20;;
19187;SDS011;9726;52.198;8.792;2022-11-25T03:17:37;21.43;;;5.50;;
19187;SDS011;9726;52.198;8.792;2022-11-25T03:20:05;19.40;;;5.83;;
19187;SDS011;9726;52.198;8.792;2022-11-25T03:22:34;11.47;;;4.67;;
19187;SDS011;9726;52.198;8.792;2022-11-25T03:25:03;20.37;;;4.93;;
19187;SDS011;9726;52.198;8.792;2022-11-25T03:27:32;23.77;;;5.33;;
19187;SDS011;9726;52.198;8.792;2022-11-25T03:30:00;15.80;;;5.43;;
19187;SDS011;9726;52.198;8.792;2022-11-25T03:32:28;17.07;;;5.30;;
19187;SDS011;9726;52.198;8.792;2022-11-25T03:34:56;34.63;;;5.80;;
19187;SDS011;9726;52.198;8.792;2022-11-25T03:37:23;21.97;;;4.97;;
19187;SDS011;9726;52.198;8.792;2022-11-25T03:39:51;18.70;;;5.10;;
19187;SDS011;9726;52.198;8.792;2022-11-25T03:42:18;21.57;;;5.00;;
19187;SDS011;9726;52.198;8.792;2022-11-25T03:44:46;17.60;;;5.17;;
19187;SDS011;9726;52.198;8.792;2022-11-25T03:47:13;21.87;;;5.33;;
19187;SDS011;9726;52.198;8.792;2022-11-25T03:49:40;17.83;;;4.97;;
19187;SDS011;9726;52.198;8.792;2022-11-25T03:52:08;28.73;;;4.67;;
19187;SDS011;9726;52.198;8.792;2022-11-25T03:54:36;16.07;;;4.70;;
19187;SDS011;9726;52.198;8.792;2022-11-25T03:57:19;17.67;;;4.63;;
19187;SDS011;9726;52.198;8.792;2022-11-25T03:59:46;20.53;;;5.10;;
19187;SDS011;9726;52.198;8.792;2022-11-25T04:02:13;13.37;;;4.47;;
19187;SDS011;9726;52.198;8.792;2022-11-25T04:04:41;17.77;;;4.50;;
19187;SDS011;9726;52.198;8.792;2022-11-25T04:07:08;19.40;;;5.53;;
19187;SDS011;9726;52.198;8.792;2022-11-25T04:09:36;18.33;;;4.07;;
19187;SDS011;9726;52.198;8.792;2022-11-25T04:12:05;12.63;;;4.23;;
19187;SDS011;9726;52.198;8.792;2022-11-25T04:14:56;12.17;;;4.30;;
19187;SDS011;9726;52.198;8.792;2022-11-25T04:17:23;17.10;;;4.10;;
19187;SDS011;9726;52.198;8.792;2022-11-25T04:19:51;18.10;;;4.33;;
19187;SDS011;9726;52.198;8.792;2022-11-25T04:22:18;21.30;;;4.50;;
19187;SDS011;9726;52.198;8.792;2022-11-25T04:24:47;20.13;;;3.93;;
19187;SDS011;9726;52.198;8.792;2022-11-25T04:27:20;31.33;;;3.90;;
19187;SDS011;9726;52.198;8.792;2022-11-25T04:29:47;24.77;;;5.57;;
19187;SDS011;9726;52.198;8.792;2022-11-25T04:32:18;17.07;;;4.00;;
19187;SDS011;9726;52.198;8.792;2022-11-25T04:34:45;20.57;;;5.37;;
19187;SDS011;9726;52.198;8.792;2022-11-25T04:37:13;13.27;;;3.87;;
19187;SDS011;9726;52.198;8.792;2022-11-25T04:39:41;20.83;;;4.20;;
19187;SDS011;9726;52.198;8.792;2022-11-25T04:42:16;22.80;;;4.87;;
19187;SDS011;9726;52.198;8.792;2022-11-25T04:45:00;17.37;;;3.77;;
19187;SDS011;9726;52.198;8.792;2022-11-25T04:47:53;28.07;;;4.40;;
19187;SDS011;9726;52.198;8.792;2022-11-25T04:50:22;16.70;;;4.43;;
19187;SDS011;9726;52.198;8.792;2022-11-25T04:53:04;13.73;;;4.50;;
19187;SDS011;9726;52.198;8.792;2022-11-25T04:55:32;21.33;;;5.23;;
19187;SDS011;9726;52.198;8.792;2022-11-25T04:58:03;19.37;;;4.67;;
19187;SDS011;9726;52.198;8.792;2022-11-25T05:00:32;19.27;;;6.37;;
19187;SDS011;9726;52.198;8.792;2022-11-25T05:03:00;30.13;;;5.50;;
19187;SDS011;9726;52.198;8.792;2022-11-25T05:05:29;19.33;;;4.93;;
19187;SDS011;9726;52.198;8.792;2022-11-25T05:07:57;19.77;;;5.27;;
19187;SDS011;9726;52.198;8.792;2022-11-25T05:10:25;19.75;;;6.10;;
19187;SDS011;9726;52.198;8.792;2022-11-25T05:12:52;17.27;;;5.80;;
19187;SDS011;9726;52.198;8.792;2022-11-25T05:15:21;20.40;;;5.80;;
19187;SDS011;9726;52.198;8.792;2022-11-25T05:17:47;27.93;;;7.13;;
19187;SDS011;9726;52.198;8.792;2022-11-25T05:20:24;20.53;;;5.60;;
19187;SDS011;9726;52.198;8.792;2022-11-25T05:22:51;18.70;;;4.83;;
19187;SDS011;9726;52.198;8.792;2022-11-25T05:25:20;22.80;;;6.90;;
19187;SDS011;9726;52.198;8.792;2022-11-25T05:28:03;26.37;;;5.27;;
19187;SDS011;9726;52.198;8.792;2022-11-25T05:30:30;17.47;;;5.30;;
19187;SDS011;9726;52.198;8.792;2022-11-25T05:32:57;23.60;;;4.83;;
19187;SDS011;9726;52.198;8.792;2022-11-25T05:35:24;15.13;;;5.30;;
19187;SDS011;9726;52.198;8.792;2022-11-25T05:37:52;17.97;;;5.60;;
19187;SDS011;9726;52.198;8.792;2022-11-25T05:40:20;17.53;;;5.33;;
19187;SDS011;9726;52.198;8.792;2022-11-25T05:43:10;21.52;;;6.15;;
19187;SDS011;9726;52.198;8.792;2022-11-25T05:45:39;30.73;;;6.17;;
19187;SDS011;9726;52.198;8.792;2022-11-25T05:48:08;21.53;;;5.77;;
19187;SDS011;9726;52.198;8.792;2022-11-25T05:50:36;19.30;;;5.07;;
19187;SDS011;9726;52.198;8.792;2022-11-25T05:53:20;22.43;;;5.77;;
19187;SDS011;9726;52.198;8.792;2022-11-25T05:55:57;19.93;;;4.77;;
19187;SDS011;9726;52.198;8.792;2022-11-25T05:58:43;14.67;;;4.33;;
19187;SDS011;9726;52.198;8.792;2022-11-25T06:01:12;23.60;;;5.60;;
19187;SDS011;9726;52.198;8.792;2022-11-25T06:03:40;20.73;;;5.40;;
19187;SDS011;9726;52.198;8.792;2022-11-25T06:06:09;20.13;;;5.60;;
19187;SDS011;9726;52.198;8.792;2022-11-25T06:08:37;25.90;;;5.50;;
19187;SDS011;9726;52.198;8.792;2022-11-25T06:11:10;24.60;;;5.90;;
19187;SDS011;9726;52.198;8.792;2022-11-25T06:13:39;23.07;;;7.53;;
19187;SDS011;9726;52.198;8.792;2022-11-25T06:16:14;29.23;;;6.73;;
19187;SDS011;9726;52.198;8.792;2022-11-25T06:18:47;23.33;;;4.33;;
19187;SDS011;9726;52.198;8.792;2022-11-25T06:21:14;24.97;;;5.57;;
19187;SDS011;9726;52.198;8.792;2022-11-25T06:23:43;21.97;;;5.50;;
19187;SDS011;9726;52.198;8.792;2022-11-25T06:26:15;21.70;;;6.47;;
19187;SDS011;9726;52.198;8.792;2022-11-25T06:28:44;12.70;;;5.73;;
19187;SDS011;9726;52.198;8.792;2022-11-25T06:31:15;22.47;;;5.93;;
19187;SDS011;9726;52.198;8.792;2022-11-25T06:33:53;22.83;;;5.53;;
19187;SDS011;9726;52.198;8.792;2022-11-25T06:36:20;23.77;;;5.27;;
19187;SDS011;9726;52.198;8.792;2022-11-25T06:38:49;23.73;;;5.00;;
19187;SDS011;9726;52.198;8.792;2022-11-25T06:41:18;22.13;;;6.60;;
19187;SDS011;9726;52.198;8.792;2022-11-25T06:43:46;17.00;;;6.43;;
19187;SDS011;9726;52.198;8.792;2022-11-25T06:46:14;15.77;;;5.40;;
19187;SDS011;9726;52.198;8.792;2022-11-25T06:48:50;27.23;;;4.73;;
19187;SDS011;9726;52.198;8.792;2022-11-25T06:51:17;18.17;;;6.13;;
19187;SDS011;9726;52.198;8.792;2022-11-25T06:53:44;14.83;;;5.70;;
19187;SDS011;9726;52.198;8.792;2022-11-25T06:56:13;23.43;;;6.07;;
19187;SDS011;9726;52.198;8.792;2022-11-25T06:58:49;24.43;;;6.07;;
19187;SDS011;9726;52.198;8.792;2022-11-25T07:01:18;22.93;;;5.50;;
19187;SDS011;9726;52.198;8.792;2022-11-25T07:03:47;28.13;;;10.77;;
19187;SDS011;9726;52.198;8.792;2022-11-25T07:06:19;19.67;;;5.47;;
19187;SDS011;9726;52.198;8.792;2022-11-25T07:08:46;24.47;;;5.60;;
19187;SDS011;9726;52.198;8.792;2022-11-25T07:11:27;18.67;;;6.40;;
19187;SDS011;9726;52.198;8.792;2022-11-25T07:13:56;19.60;;;6.37;;
19187;SDS011;9726;52.198;8.792;2022-11-25T07:16:28;30.57;;;6.60;;
19187;SDS011;9726;52.198;8.792;2022-11-25T07:19:00;21.83;;;5.73;;
19187;SDS011;9726;52.198;8.792;2022-11-25T07:21:29;25.00;;;6.17;;
19187;SDS011;9726;52.198;8.792;2022-11-25T07:23:58;22.30;;;6.60;;
19187;SDS011;9726;52.198;8.792;2022-11-25T07:26:27;22.17;;;6.53;;
19187;SDS011;9726;52.198;8.792;2022-11-25T07:29:00;25.80;;;6.33;;
19187;SDS011;9726;52.198;8.792;2022-11-25T07:31:30;19.80;;;6.30;;
19187;SDS011;9726;52.198;8.792;2022-11-25T07:34:12;20.73;;;5.40;;
19187;SDS011;9726;52.198;8.792;2022-11-25T07:36:43;24.30;;;8.10;;
19187;SDS011;9726;52.198;8.792;2022-11-25T07:39:16;27.17;;;6.23;;
19187;SDS011;9726;52.198;8.792;2022-11-25T07:41:45;30.93;;;6.03;;
19187;SDS011;9726;52.198;8.792;2022-11-25T07:44:15;27.63;;;6.07;;
19187;SDS011;9726;52.198;8.792;2022-11-25T07:46:49;26.60;;;7.87;;
19187;SDS011;9726;52.198;8.792;2022-11-25T07:49:17;41.40;;;8.37;;
19187;SDS011;9726;52.198;8.792;2022-11-25T07:51:56;22.20;;;5.60;;
19187;SDS011;9726;52.198;8.792;2022-11-25T07:54:25;24.13;;;6.40;;
19187;SDS011;9726;52.198;8.792;2022-11-25T07:56:52;22.63;;;5.50;;
19187;SDS011;9726;52.198;8.792;2022-11-25T07:59:20;19.40;;;5.63;;
19187;SDS011;9726;52.198;8.792;2022-11-25T08:01:48;24.20;;;6.57;;
19187;SDS011;9726;52.198;8.792;2022-11-25T08:04:16;21.00;;;5.33;;
19187;SDS011;9726;52.198;8.792;2022-11-25T08:06:47;20.57;;;5.03;;
19187;SDS011;9726;52.198;8.792;2022-11-25T08:09:17;14.73;;;4.83;;
19187;SDS011;9726;52.198;8.792;2022-11-25T08:11:46;16.93;;;4.80;;
19187;SDS011;9726;52.198;8.792;2022-11-25T08:14:14;22.30;;;5.70;;
19187;SDS011;9726;52.198;8.792;2022-11-25T08:16:41;21.37;;;6.77;;
19187;SDS011;9726;52.198;8.792;2022-11-25T08:19:10;15.80;;;5.90;;
19187;SDS011;9726;52.198;8.792;2022-11-25T08:21:40;19.13;;;5.73;;
19187;SDS011;9726;52.198;8.792;2022-11-25T08:24:08;24.40;;;7.30;;
19187;SDS011;9726;52.198;8.792;2022-11-25T08:26:44;25.70;;;5.90;;
19187;SDS011;9726;52.198;8.792;2022-11-25T08:29:12;20.60;;;5.90;;
19187;SDS011;9726;52.198;8.792;2022-11-25T08:31:41;18.70;;;5.40;;
19187;SDS011;9726;52.198;8.792;2022-11-25T08:34:09;21.63;;;6.77;;
19187;SDS011;9726;52.198;8.792;2022-11-25T08:36:42;24.70;;;6.20;;
19187;SDS011;9726;52.198;8.792;2022-11-25T08:39:14;16.23;;;5.87;;
19187;SDS011;9726;52.198;8.792;2022-11-25T08:42:02;15.57;;;5.50;;
19187;SDS011;9726;52.198;8.792;2022-11-25T08:44:30;26.30;;;6.10;;
19187;SDS011;9726;52.198;8.792;2022-11-25T08:46:57;15.53;;;5.17;;
19187;SDS011;9726;52.198;8.792;2022-11-25T08:49:25;22.43;;;4.63;;
19187;SDS011;9726;52.198;8.792;2022-11-25T08:51:59;15.70;;;5.53;;
19187;SDS011;9726;52.198;8.792;2022-11-25T08:54:26;11.23;;;4.27;;
19187;SDS011;9726;52.198;8.792;2022-11-25T08:56:53;18.17;;;5.33;;
19187;SDS011;9726;52.198;8.792;2022-11-25T08:59:20;17.77;;;4.23;;
19187;SDS011;9726;52.198;8.792;2022-11-25T09:01:48;17.37;;;4.47;;
19187;SDS011;9726;52.198;8.792;2022-11-25T09:04:16;19.80;;;4.67;;
19187;SDS011;9726;52.198;8.792;2022-11-25T09:06:43;10.50;;;3.83;;
19187;SDS011;9726;52.198;8.792;2022-11-25T09:09:10;15.70;;;4.20;;
19187;SDS011;9726;52.198;8.792;2022-11-25T09:11:38;16.83;;;4.07;;
19187;SDS011;9726;52.198;8.792;2022-11-25T09:14:06;18.07;;;5.07;;
19187;SDS011;9726;52.198;8.792;2022-11-25T09:16:33;17.53;;;4.87;;
19187;SDS011;9726;52.198;8.792;2022-11-25T09:19:01;13.83;;;4.07;;
19187;SDS011;9726;52.198;8.792;2022-11-25T09:21:29;15.10;;;4.37;;
19187;SDS011;9726;52.198;8.792;2022-11-25T09:23:56;10.73;;;3.57;;
19187;SDS011;9726;52.198;8.792;2022-11-25T09:26:25;13.70;;;3.80;;
19187;SDS011;9726;52.198;8.792;2022-11-25T09:28:54;15.93;;;3.97;;
19187;SDS011;9726;52.198;8.792;2022-11-25T09:31:22;17.50;;;4.30;;
19187;SDS011;9726;52.198;8.792;2022-11-25T09:33:49;18.57;;;4.53;;
19187;SDS011;9726;52.198;8.792;2022-11-25T09:36:17;17.40;;;4.83;;
19187;SDS011;9726;52.198;8.792;2022-11-25T09:38:45;11.27;;;3.67;;
19187;SDS011;9726;52.198;8.792;2022-11-25T09:41:19;10.30;;;3.83;;
19187;SDS011;9726;52.198;8.792;2022-11-25T09:44:19;13.83;;;4.30;;
19187;SDS011;9726;52.198;8.792;2022-11-25T09:55:34;16.23;;;5.03;;
19187;SDS011;9726;52.198;8.792;2022-11-25T09:58:15;16.33;;;5.57;;
19187;SDS011;9726;52.198;8.792;2022-11-25T10:01:11;14.27;;;4.63;;
19187;SDS011;9726;52.198;8.792;2022-11-25T10:03:52;22.03;;;6.37;;
19187;SDS011;9726;52.198;8.792;2022-11-25T10:06:31;22.27;;;5.77;;
19187;SDS011;9726;52.198;8.792;2022-11-25T10:09:03;14.73;;;4.97;;
19187;SDS011;9726;52.198;8.792;2022-11-25T10:14:45;17.07;;;5.03;;
19187;SDS011;9726;52.198;8.792;2022-11-25T10:17:30;24.63;;;5.93;;
19187;SDS011;9726;52.198;8.792;2022-11-25T10:20:15;14.53;;;5.20;;
19187;SDS011;9726;52.198;8.792;2022-11-25T10:22:53;13.43;;;4.07;;
19187;SDS011;9726;52.198;8.792;2022-11-25T10:25:24;20.43;;;4.37;;
19187;SDS011;9726;52.198;8.792;2022-11-25T10:30:53;15.33;;;4.60;;
19187;SDS011;9726;52.198;8.792;2022-11-25T10:38:26;14.87;;;4.30;;
19187;SDS011;9726;52.198;8.792;2022-11-25T10:40:57;20.63;;;4.97;;
19187;SDS011;9726;52.198;8.792;2022-11-25T10:43:25;10.03;;;4.60;;
19187;SDS011;9726;52.198;8.792;2022-11-25T10:48:37;14.97;;;3.97;;
19187;SDS011;9726;52.198;8.792;2022-11-25T10:51:35;14.17;;;3.80;;
19187;SDS011;9726;52.198;8.792;2022-11-25T10:54:10;12.57;;;6.30;;
19187;SDS011;9726;52.198;8.792;2022-11-25T10:56:50;11.47;;;4.80;;
19187;SDS011;9726;52.198;8.792;2022-11-25T11:07:21;15.67;;;5.23;;
19187;SDS011;9726;52.198;8.792;2022-11-25T11:09:49;18.63;;;4.40;;
19187;SDS011;9726;52.198;8.792;2022-11-25T11:14:52;10.03;;;3.90;;
19187;SDS011;9726;52.198;8.792;2022-11-25T11:17:39;15.93;;;5.63;;
19187;SDS011;9726;52.198;8.792;2022-11-25T11:22:34;17.67;;;4.83;;
19187;SDS011;9726;52.198;8.792;2022-11-25T11:27:46;19.07;;;5.23;;
19187;SDS011;9726;52.198;8.792;2022-11-25T11:30:15;10.43;;;4.43;;
19187;SDS011;9726;52.198;8.792;2022-11-25T11:32:54;15.83;;;4.67;;
19187;SDS011;9726;52.198;8.792;2022-11-25T11:38:31;12.93;;;5.17;;
19187;SDS011;9726;52.198;8.792;2022-11-25T11:41:11;14.30;;;5.00;;
19187;SDS011;9726;52.198;8.792;2022-11-25T11:43:57;15.50;;;4.80;;
19187;SDS011;9726;52.198;8.792;2022-11-25T11:57:06;20.67;;;6.13;;
19187;SDS011;9726;52.198;8.792;2022-11-25T11:59:47;20.63;;;7.30;;
19187;SDS011;9726;52.198;8.792;2022-11-25T12:02:36;22.23;;;7.43;;
19187;SDS011;9726;52.198;8.792;2022-11-25T12:05:21;12.20;;;6.83;;
19187;SDS011;9726;52.198;8.792;2022-11-25T12:07:54;17.33;;;8.03;;
19187;SDS011;9726;52.198;8.792;2022-11-25T12:10:47;23.00;;;7.80;;
19187;SDS011;9726;52.198;8.792;2022-11-25T12:13:19;19.33;;;7.90;;
19187;SDS011;9726;52.198;8.792;2022-11-25T12:15:54;18.97;;;7.87;;
19187;SDS011;9726;52.198;8.792;2022-11-25T12:18:43;25.57;;;9.43;;
19187;SDS011;9726;52.198;8.792;2022-11-25T12:27:24;22.70;;;9.30;;
19187;SDS011;9726;52.198;8.792;2022-11-25T12:30:00;20.03;;;9.00;;
19187;SDS011;9726;52.198;8.792;2022-11-25T12:35:04;20.70;;;9.83;;
19187;SDS011;9726;52.198;8.792;2022-11-25T12:41:05;12.37;;;8.20;;
19187;SDS011;9726;52.198;8.792;2022-11-25T12:43:30;20.13;;;9.73;;
19187;SDS011;9726;52.198;8.792;2022-11-25T12:48:52;18.27;;;8.93;;
19187;SDS011;9726;52.198;8.792;2022-11-25T12:56:40;33.53;;;10.83;;
19187;SDS011;9726;52.198;8.792;2022-11-25T12:59:33;15.63;;;8.53;;
19187;SDS011;9726;52.198;8.792;2022-11-25T13:02:24;12.50;;;8.37;;
19187;SDS011;9726;52.198;8.792;2022-11-25T13:14:31;31.77;;;9.97;;
19187;SDS011;9726;52.198;8.792;2022-11-25T13:17:28;20.87;;;9.30;;
19187;SDS011;9726;52.198;8.792;2022-11-25T13:23:27;18.07;;;9.47;;
19187;SDS011;9726;52.198;8.792;2022-11-25T13:25:50;18.87;;;9.43;;
19187;SDS011;9726;52.198;8.792;2022-11-25T13:28:32;20.40;;;9.83;;
19187;SDS011;9726;52.198;8.792;2022-11-25T13:31:53;16.33;;;9.17;;
19187;SDS011;9726;52.198;8.792;2022-11-25T13:34:35;15.80;;;8.73;;
19187;SDS011;9726;52.198;8.792;2022-11-25T13:36:57;14.00;;;8.50;;
19187;SDS011;9726;52.198;8.792;2022-11-25T13:39:29;18.50;;;10.00;;
19187;SDS011;9726;52.198;8.792;2022-11-25T13:44:56;21.87;;;9.07;;
19187;SDS011;9726;52.198;8.792;2022-11-25T13:47:35;19.33;;;9.00;;
19187;SDS011;9726;52.198;8.792;2022-11-25T13:52:48;17.03;;;8.87;;
19187;SDS011;9726;52.198;8.792;2022-11-25T14:11:25;19.97;;;9.60;;
19187;SDS011;9726;52.198;8.792;2022-11-25T14:14:25;20.57;;;10.17;;
19187;SDS011;9726;52.198;8.792;2022-11-25T14:19:53;21.57;;;11.10;;
19187;SDS011;9726;52.198;8.792;2022-11-25T14:23:40;20.90;;;10.60;;
19187;SDS011;9726;52.198;8.792;2022-11-25T14:25:53;23.93;;;10.33;;
19187;SDS011;9726;52.198;8.792;2022-11-25T14:28:31;31.83;;;11.63;;
19187;SDS011;9726;52.198;8.792;2022-11-25T14:31:21;23.80;;;11.33;;
19187;SDS011;9726;52.198;8.792;2022-11-25T14:33:56;18.57;;;10.60;;
19187;SDS011;9726;52.198;8.792;2022-11-25T14:36:28;19.43;;;10.80;;
19187;SDS011;9726;52.198;8.792;2022-11-25T14:39:03;26.07;;;10.80;;
19187;SDS011;9726;52.198;8.792;2022-11-25T14:41:35;17.27;;;10.90;;
19187;SDS011;9726;52.198;8.792;2022-11-25T14:44:11;25.77;;;11.93;;
19187;SDS011;9726;52.198;8.792;2022-11-25T14:46:49;21.83;;;10.27;;
19187;SDS011;9726;52.198;8.792;2022-11-25T14:49:21;21.13;;;10.27;;
19187;SDS011;9726;52.198;8.792;2022-11-25T14:52:08;21.50;;;10.57;;
19187;SDS011;9726;52.198;8.792;2022-11-25T14:54:40;19.17;;;9.60;;
19187;SDS011;9726;52.198;8.792;2022-11-25T14:57:09;18.73;;;8.97;;
19187;SDS011;9726;52.198;8.792;2022-11-25T14:59:37;19.67;;;8.70;;
19187;SDS011;9726;52.198;8.792;2022-11-25T15:02:23;23.77;;;10.83;;
19187;SDS011;9726;52.198;8.792;2022-11-25T15:04:59;20.13;;;9.57;;
19187;SDS011;9726;52.198;8.792;2022-11-25T15:08:20;25.37;;;9.03;;
19187;SDS011;9726;52.198;8.792;2022-11-25T15:13:11;26.23;;;9.47;;
19187;SDS011;9726;52.198;8.792;2022-11-25T15:15:50;20.23;;;10.53;;
19187;SDS011;9726;52.198;8.792;2022-11-25T15:18:20;20.60;;;9.60;;
19187;SDS011;9726;52.198;8.792;2022-11-25T15:20:52;24.07;;;8.83;;
19187;SDS011;9726;52.198;8.792;2022-11-25T15:23:29;22.83;;;10.57;;
19187;SDS011;9726;52.198;8.792;2022-11-25T15:26:00;20.33;;;8.43;;
19187;SDS011;9726;52.198;8.792;2022-11-25T15:28:35;23.23;;;7.97;;
19187;SDS011;9726;52.198;8.792;2022-11-25T15:31:08;15.87;;;8.07;;
19187;SDS011;9726;52.198;8.792;2022-11-25T15:33:36;18.53;;;8.40;;
19187;SDS011;9726;52.198;8.792;2022-11-25T15:36:04;19.93;;;8.63;;
19187;SDS011;9726;52.198;8.792;2022-11-25T15:38:38;21.37;;;8.17;;
19187;SDS011;9726;52.198;8.792;2022-11-25T15:41:20;20.80;;;8.10;;
19187;SDS011;9726;52.198;8.792;2022-11-25T15:43:57;26.60;;;7.93;;
19187;SDS011;9726;52.198;8.792;2022-11-25T15:46:27;27.00;;;7.93;;
19187;SDS011;9726;52.198;8.792;2022-11-25T15:48:57;21.90;;;8.33;;
19187;SDS011;9726;52.198;8.792;2022-11-25T15:54:14;16.97;;;8.73;;
19187;SDS011;9726;52.198;8.792;2022-11-25T15:56:47;13.80;;;7.10;;
19187;SDS011;9726;52.198;8.792;2022-11-25T15:59:36;20.27;;;7.73;;
19187;SDS011;9726;52.198;8.792;2022-11-25T16:07:53;30.27;;;8.60;;
19187;SDS011;9726;52.198;8.792;2022-11-25T16:10:24;16.67;;;8.33;;
19187;SDS011;9726;52.198;8.792;2022-11-25T16:18:14;19.60;;;9.17;;
19187;SDS011;9726;52.198;8.792;2022-11-25T16:21:04;25.43;;;13.00;;
19187;SDS011;9726;52.198;8.792;2022-11-25T16:23:53;24.93;;;11.60;;
19187;SDS011;9726;52.198;8.792;2022-11-25T16:26:32;22.97;;;9.10;;
19187;SDS011;9726;52.198;8.792;2022-11-25T16:29:07;25.30;;;9.20;;
19187;SDS011;9726;52.198;8.792;2022-11-25T16:31:51;25.30;;;8.87;;
19187;SDS011;9726;52.198;8.792;2022-11-25T16:34:19;35.37;;;9.50;;
19187;SDS011;9726;52.198;8.792;2022-11-25T16:36:49;30.93;;;12.20;;
19187;SDS011;9726;52.198;8.792;2022-11-25T16:39:17;31.83;;;9.33;;
19187;SDS011;9726;52.198;8.792;2022-11-25T16:41:44;24.90;;;8.20;;
19187;SDS011;9726;52.198;8.792;2022-11-25T16:44:21;27.43;;;8.73;;
19187;SDS011;9726;52.198;8.792;2022-11-25T16:46:50;25.10;;;9.37;;
19187;SDS011;9726;52.198;8.792;2022-11-25T16:49:19;34.30;;;12.73;;
19187;SDS011;9726;52.198;8.792;2022-11-25T16:51:48;25.10;;;12.10;;
19187;SDS011;9726;52.198;8.792;2022-11-25T16:54:19;26.67;;;10.47;;
19187;SDS011;9726;52.198;8.792;2022-11-25T16:56:47;24.23;;;8.87;;
19187;SDS011;9726;52.198;8.792;2022-11-25T16:59:17;29.23;;;8.47;;
19187;SDS011;9726;52.198;8.792;2022-11-25T17:01:54;24.23;;;8.23;;
19187;SDS011;9726;52.198;8.792;2022-11-25T17:04:22;24.17;;;8.43;;
19187;SDS011;9726;52.198;8.792;2022-11-25T17:06:49;22.60;;;7.57;;
19187;SDS011;9726;52.198;8.792;2022-11-25T17:09:37;23.93;;;8.07;;
19187;SDS011;9726;52.198;8.792;2022-11-25T17:12:06;30.00;;;8.70;;
19187;SDS011;9726;52.198;8.792;2022-11-25T17:14:39;29.13;;;8.23;;
19187;SDS011;9726;52.198;8.792;2022-11-25T17:17:08;22.60;;;8.13;;
19187;SDS011;9726;52.198;8.792;2022-11-25T17:19:38;27.53;;;8.60;;
19187;SDS011;9726;52.198;8.792;2022-11-25T17:22:13;24.47;;;6.97;;
19187;SDS011;9726;52.198;8.792;2022-11-25T17:24:44;19.70;;;7.10;;
19187;SDS011;9726;52.198;8.792;2022-11-25T17:27:16;18.60;;;7.00;;
19187;SDS011;9726;52.198;8.792;2022-11-25T17:29:49;34.00;;;8.43;;
19187;SDS011;9726;52.198;8.792;2022-11-25T17:32:17;28.80;;;9.97;;
19187;SDS011;9726;52.198;8.792;2022-11-25T17:34:45;42.07;;;14.03;;
19187;SDS011;9726;52.198;8.792;2022-11-25T17:37:13;43.73;;;13.33;;